createdAt,value
2019-03-22T00:01:23.240Z,32.10
2019-03-22T00:03:55.615Z,33.73
2019-03-22T00:06:29.314Z,39.90
2019-03-22T00:09:03.948Z,34.57
2019-03-22T00:11:36.077Z,27.17
2019-03-22T00:14:10.158Z,26.30
2019-03-22T00:16:42.589Z,29.07
2019-03-22T00:19:18.303Z,24.27
2019-03-22T00:21:49.370Z,26.10
2019-03-22T00:24:24.650Z,28.77
2019-03-22T00:26:56.396Z,28.30
2019-03-22T00:29:31.286Z,28.07
2019-03-22T00:32:04.582Z,28.73
2019-03-22T00:34:37.126Z,27.67
2019-03-22T00:37:09.006Z,27.83
2019-03-22T00:39:40.148Z,25.60
2019-03-22T00:42:12.663Z,27.90
2019-03-22T00:44:46.673Z,26.80
2019-03-22T00:47:18.198Z,24.97
2019-03-22T00:49:49.751Z,27.43
2019-03-22T00:52:21.163Z,22.43
2019-03-22T00:54:55.175Z,21.43
2019-03-22T00:57:28.634Z,25.47
2019-03-22T01:00:02.842Z,21.13
2019-03-22T01:02:35.873Z,23.60
2019-03-22T01:05:10.055Z,24.33
2019-03-22T01:07:41.651Z,23.50
2019-03-22T01:10:13.778Z,19.93
2019-03-22T01:12:45.230Z,20.70
2019-03-22T01:15:17.719Z,22.03
2019-03-22T01:17:48.820Z,22.03
2019-03-22T01:20:22.553Z,23.70
2019-03-22T01:22:55.353Z,21.03
2019-03-22T01:25:27.506Z,22.70
2019-03-22T01:28:01.032Z,20.03
2019-03-22T01:30:34.807Z,23.93
2019-03-22T01:33:06.620Z,19.67
2019-03-22T01:35:39.744Z,18.60
2019-03-22T01:38:14.181Z,18.30
2019-03-22T01:40:48.819Z,19.07
2019-03-22T01:43:22.365Z,16.80
2019-03-22T01:45:55.706Z,24.50
2019-03-22T01:48:27.234Z,17.20
2019-03-22T01:51:00.446Z,21.13
2019-03-22T01:53:32.637Z,19.80
2019-03-22T01:56:03.777Z,18.03
2019-03-22T01:58:34.495Z,19.33
2019-03-22T02:01:06.685Z,23.57
2019-03-22T02:03:39.574Z,17.20
2019-03-22T02:06:12.110Z,17.20
2019-03-22T02:08:45.202Z,18.00
2019-03-22T02:11:18.310Z,17.93
2019-03-22T02:13:51.301Z,16.93
2019-03-22T02:16:23.835Z,18.93
2019-03-22T02:18:55.300Z,19.83
2019-03-22T02:21:28.299Z,20.13
2019-03-22T02:24:03.975Z,17.63
2019-03-22T02:26:38.256Z,18.87
2019-03-22T02:29:10.523Z,17.00
2019-03-22T02:31:45.096Z,18.77
2019-03-22T02:34:19.489Z,17.57
2019-03-22T02:36:51.498Z,16.03
2019-03-22T02:39:24.818Z,16.43
2019-03-22T02:41:57.078Z,18.17
2019-03-22T02:44:30.613Z,15.57
2019-03-22T02:47:03.128Z,19.70
2019-03-22T02:49:33.856Z,15.40
2019-03-22T02:52:06.112Z,16.87
2019-03-22T02:54:37.853Z,20.80
2019-03-22T02:57:10.396Z,14.67
2019-03-22T02:59:43.174Z,19.70
2019-03-22T03:02:14.633Z,21.03
2019-03-22T03:04:49.019Z,16.50
2019-03-22T03:07:20.634Z,21.73
2019-03-22T03:09:53.016Z,18.43
2019-03-22T03:12:23.798Z,18.03
2019-03-22T03:14:55.054Z,16.43
2019-03-22T03:17:27.069Z,15.17
2019-03-22T03:19:59.028Z,20.23
2019-03-22T03:22:31.209Z,22.07
2019-03-22T03:25:07.364Z,16.83
2019-03-22T03:27:40.723Z,17.07
2019-03-22T03:30:18.533Z,20.10
2019-03-22T03:32:51.042Z,20.37
2019-03-22T03:35:22.617Z,17.73
2019-03-22T03:37:54.130Z,21.27
2019-03-22T03:40:26.494Z,19.27
2019-03-22T03:42:59.858Z,20.30
2019-03-22T03:45:34.947Z,18.67
2019-03-22T03:48:08.394Z,16.63
2019-03-22T03:50:39.969Z,23.80
2019-03-22T03:53:12.180Z,18.00
2019-03-22T03:55:43.778Z,17.73
2019-03-22T03:58:15.384Z,18.77
2019-03-22T04:00:46.426Z,19.50
2019-03-22T04:03:18.058Z,17.67
2019-03-22T04:05:50.087Z,19.43
2019-03-22T04:08:21.309Z,17.83
2019-03-22T04:10:52.937Z,16.60
2019-03-22T04:13:25.186Z,19.27
2019-03-22T04:15:56.962Z,18.60
2019-03-22T04:18:28.997Z,15.57
2019-03-22T04:21:03.118Z,18.80
2019-03-22T04:23:36.922Z,15.90
2019-03-22T04:26:07.648Z,14.73
2019-03-22T04:28:40.331Z,15.90
2019-03-22T04:31:13.178Z,17.60
2019-03-22T04:33:45.162Z,15.37
2019-03-22T04:36:15.916Z,14.00
2019-03-22T04:38:47.951Z,21.13
2019-03-22T04:41:19.971Z,19.07
2019-03-22T04:43:51.096Z,15.40
2019-03-22T04:46:22.715Z,17.83
2019-03-22T04:48:55.663Z,16.87
2019-03-22T04:51:27.282Z,16.83
2019-03-22T04:54:03.546Z,17.70
2019-03-22T04:56:39.252Z,15.07
2019-03-22T04:59:19.350Z,16.53
2019-03-22T05:01:50.874Z,18.37
2019-03-22T05:04:27.357Z,22.70
2019-03-22T05:06:59.869Z,18.40
2019-03-22T05:09:33.057Z,23.50
2019-03-22T05:12:09.856Z,17.93
2019-03-22T05:14:44.678Z,21.80
2019-03-22T05:17:17.264Z,15.77
2019-03-22T05:19:54.374Z,17.33
2019-03-22T05:22:28.554Z,23.93
2019-03-22T05:25:05.003Z,17.83
2019-03-22T05:27:40.094Z,19.67
2019-03-22T05:30:31.724Z,18.30
2019-03-22T05:33:05.253Z,17.83
2019-03-22T05:35:38.661Z,20.93
2019-03-22T05:38:11.490Z,19.63
2019-03-22T05:40:46.008Z,22.57
2019-03-22T05:43:17.790Z,23.00
2019-03-22T05:45:48.526Z,20.20
2019-03-22T05:48:20.486Z,25.07
2019-03-22T05:50:52.243Z,20.63
2019-03-22T05:53:24.275Z,17.63
2019-03-22T05:55:55.797Z,18.20
2019-03-22T05:58:29.619Z,18.40
2019-03-22T06:01:02.698Z,21.17
2019-03-22T06:03:37.769Z,19.00
2019-03-22T06:06:10.768Z,20.70
2019-03-22T06:08:44.169Z,22.63
2019-03-22T06:11:15.762Z,22.50
2019-03-22T06:13:48.275Z,18.77
2019-03-22T06:16:19.319Z,18.83
2019-03-22T06:18:51.643Z,22.00
2019-03-22T06:21:25.039Z,23.40
2019-03-22T06:23:59.215Z,21.27
2019-03-22T06:26:34.521Z,27.67
2019-03-22T06:29:06.293Z,19.83
2019-03-22T06:31:40.807Z,24.23
2019-03-22T06:34:49.218Z,18.77
2019-03-22T06:37:22.860Z,24.17
2019-03-22T06:39:53.569Z,19.60
2019-03-22T06:42:25.182Z,17.73
2019-03-22T06:44:57.062Z,18.47
2019-03-22T06:47:27.966Z,20.63
2019-03-22T06:49:59.212Z,18.47
2019-03-22T06:52:33.698Z,20.27
2019-03-22T06:55:08.162Z,20.77
2019-03-22T06:57:41.811Z,18.63
2019-03-22T07:00:15.331Z,21.83
2019-03-22T07:02:46.429Z,19.57
2019-03-22T07:05:18.343Z,17.50
2019-03-22T07:07:51.276Z,24.57
2019-03-22T07:10:23.384Z,19.77
2019-03-22T07:12:55.044Z,21.60
2019-03-22T07:15:28.055Z,20.10
2019-03-22T07:17:59.557Z,27.20
2019-03-22T07:20:30.709Z,26.30
2019-03-22T07:23:02.942Z,26.77
2019-03-22T07:25:34.099Z,23.80
2019-03-22T07:28:05.161Z,21.33
2019-03-22T07:30:36.759Z,22.03
2019-03-22T07:33:10.815Z,27.87
2019-03-22T07:35:44.011Z,20.90
2019-03-22T07:38:16.144Z,23.50
2019-03-22T07:40:48.331Z,23.93
2019-03-22T07:43:19.554Z,35.37
2019-03-22T07:45:51.575Z,26.20
2019-03-22T07:48:23.487Z,31.00
2019-03-22T07:50:57.252Z,21.73
2019-03-22T07:53:29.810Z,22.17
2019-03-22T07:56:04.313Z,22.37
2019-03-22T07:58:37.033Z,29.00
2019-03-22T08:01:08.025Z,16.93
2019-03-22T08:04:03.366Z,23.03
2019-03-22T08:06:36.140Z,20.97
2019-03-22T08:09:11.431Z,24.53
2019-03-22T08:11:42.543Z,22.27
2019-03-22T08:14:16.296Z,27.17
2019-03-22T08:16:47.592Z,17.90
2019-03-22T08:19:21.265Z,23.73
2019-03-22T08:21:52.183Z,19.20
2019-03-22T08:24:24.696Z,18.53
2019-03-22T08:26:57.611Z,24.57
2019-03-22T08:29:28.876Z,17.73
2019-03-22T08:32:06.451Z,19.30
2019-03-22T08:34:41.399Z,23.73
2019-03-22T08:37:12.561Z,18.47
2019-03-22T08:39:44.701Z,18.03
2019-03-22T08:42:15.513Z,22.77
2019-03-22T08:44:46.797Z,17.57
2019-03-22T08:47:18.190Z,17.60
2019-03-22T08:49:50.731Z,87.07
2019-03-22T08:52:24.871Z,33.80
2019-03-22T08:54:58.862Z,42.97
2019-03-22T08:57:31.046Z,187.57
2019-03-22T09:00:02.287Z,144.87
2019-03-22T09:02:33.519Z,36.53
2019-03-22T09:05:04.387Z,40.93
2019-03-22T09:07:38.097Z,18.43
2019-03-22T09:10:11.148Z,22.40
2019-03-22T09:12:43.970Z,19.97
2019-03-22T09:15:15.616Z,18.57
2019-03-22T09:17:47.205Z,21.27
2019-03-22T09:20:20.030Z,27.50
2019-03-22T09:22:50.701Z,27.40
2019-03-22T09:34:11.786Z,19.30
2019-03-22T09:36:45.476Z,28.57
2019-03-22T09:39:17.762Z,27.10
2019-03-22T09:41:50.591Z,20.77
2019-03-22T09:44:21.317Z,38.53
2019-03-22T09:46:52.096Z,24.73
2019-03-22T09:49:22.971Z,25.30
2019-03-22T09:51:55.329Z,22.33
2019-03-22T09:54:26.667Z,23.60
2019-03-22T10:07:35.341Z,43.57
2019-03-22T10:10:07.997Z,21.10
2019-03-22T10:12:40.534Z,47.03
2019-03-22T10:15:12.712Z,36.47
2019-03-22T10:17:45.610Z,46.13
2019-03-22T10:20:17.722Z,29.80
2019-03-22T10:22:48.827Z,18.33
2019-03-22T10:25:22.498Z,23.83
2019-03-22T10:27:55.268Z,31.17
2019-03-22T10:30:26.510Z,24.63
2019-03-22T10:32:57.755Z,21.57
2019-03-22T10:35:29.318Z,24.33
2019-03-22T10:38:06.265Z,22.10
2019-03-22T10:40:39.890Z,18.63
2019-03-22T10:43:15.151Z,21.77
2019-03-22T10:45:47.338Z,21.20
2019-03-22T10:48:19.676Z,23.97
2019-03-22T10:50:51.290Z,21.33
2019-03-22T10:53:22.849Z,16.53
2019-03-22T10:55:54.536Z,22.93
2019-03-22T10:58:25.810Z,17.97
2019-03-22T11:00:57.837Z,22.53
2019-03-22T11:03:30.153Z,24.20
2019-03-22T11:06:02.481Z,22.50
2019-03-22T11:08:34.361Z,19.63
2019-03-22T11:11:08.874Z,20.13
2019-03-22T11:13:41.127Z,19.07
2019-03-22T11:16:12.230Z,24.30
2019-03-22T11:18:46.519Z,15.90
2019-03-22T11:21:20.844Z,17.17
2019-03-22T11:23:52.973Z,14.33
2019-03-22T11:26:24.130Z,15.90
2019-03-22T11:28:55.751Z,16.23
2019-03-22T11:31:28.768Z,16.20
2019-03-22T11:34:02.255Z,15.17
2019-03-22T11:36:34.244Z,17.33
2019-03-22T11:39:15.786Z,15.80
2019-03-22T11:41:46.879Z,16.37
2019-03-22T11:44:21.498Z,20.50
2019-03-22T11:46:54.780Z,13.33
2019-03-22T11:49:28.104Z,16.00
2019-03-22T11:52:02.873Z,24.03
2019-03-22T11:54:35.182Z,15.17
2019-03-22T11:57:07.042Z,17.63
2019-03-22T11:59:38.666Z,15.77
2019-03-22T12:02:11.255Z,14.47
2019-03-22T12:04:44.248Z,11.67
2019-03-22T12:07:17.766Z,15.90
2019-03-22T12:09:51.709Z,12.67
2019-03-22T12:12:25.744Z,9.13
2019-03-22T12:14:58.150Z,11.70
2019-03-22T12:17:29.902Z,14.33
2019-03-22T12:20:06.479Z,11.73
2019-03-22T12:22:39.921Z,11.30
2019-03-22T12:25:12.703Z,10.40
2019-03-22T12:27:44.302Z,26.97
2019-03-22T12:30:16.868Z,11.67
2019-03-22T12:32:48.845Z,12.67
2019-03-22T12:35:20.777Z,10.45
2019-03-22T12:37:51.785Z,11.00
2019-03-22T12:40:23.683Z,10.63
2019-03-22T12:42:56.559Z,18.10
2019-03-22T12:45:27.730Z,8.00
2019-03-22T12:47:58.848Z,19.10
2019-03-22T12:50:31.021Z,15.43
2019-03-22T12:53:02.170Z,19.73
2019-03-22T12:55:33.246Z,13.80
2019-03-22T12:58:04.857Z,13.18
2019-03-22T13:00:36.457Z,13.40
2019-03-22T13:03:08.057Z,9.50
2019-03-22T13:05:40.595Z,9.43
2019-03-22T13:08:11.302Z,10.72
2019-03-22T13:10:45.066Z,15.10
2019-03-22T13:13:17.935Z,11.40
2019-03-22T13:15:50.137Z,15.03
2019-03-22T13:18:20.944Z,12.85
2019-03-22T13:20:53.306Z,8.18
2019-03-22T13:23:31.272Z,8.10
2019-03-22T13:26:05.234Z,13.62
2019-03-22T13:28:43.787Z,13.20
2019-03-22T13:31:17.886Z,12.45
2019-03-22T13:33:51.792Z,12.50
2019-03-22T13:36:26.660Z,9.60
2019-03-22T13:38:58.667Z,8.58
2019-03-22T13:41:42.433Z,10.80
2019-03-22T13:44:13.839Z,10.15
2019-03-22T13:46:44.620Z,8.33
2019-03-22T13:49:15.367Z,8.78
2019-03-22T13:51:47.455Z,15.72
2019-03-22T13:54:19.899Z,10.50
2019-03-22T13:56:51.762Z,14.87
2019-03-22T13:59:23.769Z,11.43
2019-03-22T14:01:54.932Z,11.22
2019-03-22T14:04:27.333Z,10.15
2019-03-22T14:07:00.573Z,9.73
2019-03-22T14:09:32.141Z,12.23
2019-03-22T14:12:03.628Z,12.75
2019-03-22T14:14:36.457Z,11.53
2019-03-22T14:17:07.618Z,6.92
2019-03-22T14:19:38.336Z,19.10
2019-03-22T14:22:11.595Z,11.97
2019-03-22T14:24:43.283Z,8.75
2019-03-22T14:27:16.548Z,9.18
2019-03-22T14:29:48.108Z,15.23
2019-03-22T14:32:20.019Z,20.62
2019-03-22T14:34:52.084Z,15.08
2019-03-22T14:37:25.276Z,10.98
2019-03-22T14:39:55.986Z,9.45
2019-03-22T14:42:27.793Z,7.60
2019-03-22T14:44:59.307Z,8.65
2019-03-22T14:47:30.370Z,8.33
2019-03-22T14:50:02.210Z,8.38
2019-03-22T14:52:34.885Z,10.63
2019-03-22T14:55:09.629Z,7.20
2019-03-22T14:57:48.723Z,9.13
2019-03-22T15:00:15.048Z,9.75
2019-03-22T15:02:48.939Z,9.15
2019-03-22T15:05:20.928Z,9.68
2019-03-22T15:07:56.725Z,8.35
2019-03-22T15:10:31.468Z,10.58
2019-03-22T15:13:07.451Z,8.15
2019-03-22T15:16:06.390Z,10.53
2019-03-22T15:19:05.901Z,8.30
2019-03-22T15:21:55.413Z,9.48
2019-03-22T15:24:37.783Z,10.20
2019-03-22T15:27:38.211Z,16.85
2019-03-22T15:30:30.757Z,16.95
2019-03-22T15:33:34.556Z,45.30
2019-03-22T15:36:25.140Z,17.27
2019-03-22T15:39:21.699Z,16.32
2019-03-22T15:41:57.714Z,16.40
2019-03-22T15:44:31.115Z,12.07
2019-03-22T15:47:06.386Z,11.35
2019-03-22T15:49:40.790Z,14.00
2019-03-22T15:52:11.909Z,11.40
2019-03-22T15:54:42.944Z,10.13
2019-03-22T15:57:14.910Z,14.90
2019-03-22T15:59:46.452Z,8.90
2019-03-22T16:02:17.597Z,11.73
2019-03-22T16:04:49.715Z,10.97
2019-03-22T16:07:21.727Z,12.67
2019-03-22T16:09:54.894Z,7.60
2019-03-22T16:12:26.116Z,8.33
2019-03-22T16:14:58.067Z,10.50
2019-03-22T16:17:29.229Z,10.10
2019-03-22T16:20:00.419Z,13.13
2019-03-22T16:22:31.573Z,10.03
2019-03-22T16:25:05.897Z,11.87
2019-03-22T16:27:37.100Z,18.17
2019-03-22T16:30:09.616Z,15.47
2019-03-22T16:32:41.489Z,13.83
2019-03-22T16:35:13.552Z,10.50
2019-03-22T16:37:44.805Z,14.07
2019-03-22T16:40:24.146Z,7.37
2019-03-22T16:42:51.578Z,10.30
2019-03-22T16:45:44.191Z,10.17
2019-03-22T16:48:15.416Z,8.40
2019-03-22T16:50:46.179Z,17.30
2019-03-22T16:53:18.213Z,10.67
2019-03-22T16:55:54.131Z,11.20
2019-03-22T16:58:25.925Z,12.53
2019-03-22T17:00:59.019Z,7.20
2019-03-22T17:03:34.087Z,8.83
2019-03-22T17:06:08.032Z,9.27
2019-03-22T17:08:39.627Z,10.33
2019-03-22T17:11:11.576Z,16.67
2019-03-22T17:13:43.550Z,6.90
2019-03-22T17:16:15.591Z,7.97
2019-03-22T17:18:48.018Z,7.90
2019-03-22T17:21:18.834Z,9.87
2019-03-22T17:23:50.387Z,11.83
2019-03-22T17:26:21.165Z,8.70
2019-03-22T17:28:57.942Z,7.57
2019-03-22T17:31:33.987Z,11.47
2019-03-22T17:34:14.007Z,8.00
2019-03-22T17:36:39.878Z,8.17
2019-03-22T17:39:11.084Z,6.73
2019-03-22T17:41:42.193Z,6.27
2019-03-22T17:44:14.830Z,9.43
2019-03-22T17:46:48.733Z,9.93
2019-03-22T17:49:19.813Z,13.87
2019-03-22T17:51:51.756Z,12.37
2019-03-22T17:54:24.259Z,8.20
2019-03-22T17:56:56.311Z,11.37
2019-03-22T17:59:28.167Z,13.47
2019-03-22T18:02:00.793Z,13.27
2019-03-22T18:04:33.757Z,15.60
2019-03-22T18:07:07.183Z,16.03
2019-03-22T18:09:37.921Z,14.37
2019-03-22T18:12:09.107Z,10.23
2019-03-22T18:14:43.354Z,9.80
2019-03-22T18:17:15.112Z,13.67
2019-03-22T18:19:46.362Z,12.67
2019-03-22T18:22:17.857Z,11.60
2019-03-22T18:24:49.097Z,13.43
2019-03-22T18:27:19.870Z,12.97
2019-03-22T18:29:50.567Z,12.17
2019-03-22T18:32:22.161Z,13.57
2019-03-22T18:34:53.572Z,11.47
2019-03-22T18:37:24.629Z,13.83
2019-03-22T18:39:55.649Z,10.77
2019-03-22T18:42:28.043Z,10.23
2019-03-22T18:45:00.420Z,11.53
2019-03-22T18:47:33.238Z,12.33
2019-03-22T18:50:06.027Z,15.73
2019-03-22T18:52:38.553Z,9.60
2019-03-22T18:55:10.321Z,11.27
2019-03-22T18:57:42.831Z,20.50
2019-03-22T19:00:18.608Z,13.00
2019-03-22T19:02:52.076Z,13.67
2019-03-22T19:05:23.706Z,14.43
2019-03-22T19:07:54.591Z,13.20
2019-03-22T19:10:25.364Z,15.70
2019-03-22T19:13:01.321Z,13.87
2019-03-22T19:15:34.013Z,12.00
2019-03-22T19:18:06.624Z,10.93
2019-03-22T19:20:41.394Z,11.23
2019-03-22T19:23:14.953Z,15.27
2019-03-22T19:25:47.467Z,15.83
2019-03-22T19:29:47.248Z,17.87
2019-03-22T19:31:19.289Z,18.20
2019-03-22T19:33:51.837Z,12.60
2019-03-22T19:36:32.616Z,13.77
2019-03-22T19:39:10.262Z,15.40
2019-03-22T19:41:47.127Z,11.53
2019-03-22T19:44:21.999Z,16.93
2019-03-22T19:46:53.660Z,13.63
2019-03-22T19:49:27.651Z,12.80
2019-03-22T19:52:01.701Z,14.00
2019-03-22T19:54:37.304Z,14.23
2019-03-22T19:57:12.089Z,12.03
2019-03-22T19:59:43.431Z,17.00
2019-03-22T20:02:15.337Z,18.57
2019-03-22T20:04:48.063Z,17.47
2019-03-22T20:07:27.076Z,15.00
2019-03-22T20:09:57.488Z,10.23
2019-03-22T20:12:29.327Z,13.10
2019-03-22T20:15:09.344Z,15.93
2019-03-22T20:17:40.741Z,10.93
2019-03-22T20:20:13.519Z,13.47
2019-03-22T20:22:44.232Z,11.53
2019-03-22T20:25:16.327Z,13.63
2019-03-22T20:27:48.131Z,11.03
2019-03-22T20:30:23.884Z,13.83
2019-03-22T20:32:56.318Z,10.57
2019-03-22T20:35:29.221Z,17.00
2019-03-22T20:38:01.163Z,14.77
2019-03-22T20:40:32.265Z,15.77
2019-03-22T20:43:04.368Z,15.87
2019-03-22T20:45:35.127Z,12.37
2019-03-22T20:48:08.775Z,11.57
2019-03-22T20:50:44.100Z,12.57
2019-03-22T20:53:16.289Z,14.50
2019-03-22T20:55:50.066Z,15.47
2019-03-22T20:58:22.745Z,15.90
2019-03-22T21:00:54.209Z,10.33
2019-03-22T21:03:25.277Z,15.17
2019-03-22T21:05:58.322Z,14.10
2019-03-22T21:08:31.381Z,14.23
2019-03-22T21:11:03.274Z,17.33
2019-03-22T21:13:36.334Z,15.60
2019-03-22T21:16:08.223Z,19.43
2019-03-22T21:18:43.056Z,17.87
2019-03-22T21:21:18.784Z,18.40
2019-03-22T21:23:52.255Z,15.93
2019-03-22T21:26:24.183Z,14.20
2019-03-22T21:28:57.921Z,20.13
2019-03-22T21:31:28.693Z,17.67
2019-03-22T21:33:59.989Z,14.83
2019-03-22T21:36:31.903Z,16.83
2019-03-22T21:39:05.720Z,16.87
2019-03-22T21:41:36.883Z,15.60
2019-03-22T21:44:07.885Z,20.30
2019-03-22T21:46:42.523Z,16.90
2019-03-22T21:49:25.246Z,14.03
2019-03-22T21:52:02.122Z,16.20
2019-03-22T21:54:33.234Z,17.30
2019-03-22T21:57:04.333Z,16.80
2019-03-22T21:59:35.568Z,15.63
2019-03-22T22:02:06.916Z,20.77
2019-03-22T22:04:38.057Z,15.43
2019-03-22T22:07:12.180Z,19.03
2019-03-22T22:09:43.823Z,15.90
2019-03-22T22:12:29.868Z,14.63
2019-03-22T22:15:15.022Z,15.67
2019-03-22T22:17:48.364Z,18.17
2019-03-22T22:20:28.436Z,13.13
2019-03-22T22:22:56.103Z,15.30
2019-03-22T22:25:27.665Z,15.47
2019-03-22T22:27:59.878Z,19.50
2019-03-22T22:30:31.931Z,14.47
2019-03-22T22:33:03.056Z,24.23
2019-03-22T22:35:35.325Z,22.27
2019-03-22T22:38:09.841Z,16.33
2019-03-22T22:40:41.735Z,17.13
2019-03-22T22:43:13.226Z,19.00
2019-03-22T22:45:44.218Z,16.30
2019-03-22T22:48:18.175Z,21.90
2019-03-22T22:50:49.765Z,20.63
2019-03-22T22:53:23.765Z,17.20
2019-03-22T22:55:54.492Z,17.77
2019-03-22T22:58:26.555Z,20.63
2019-03-22T23:00:58.794Z,25.17
2019-03-22T23:03:31.581Z,17.97
2019-03-22T23:06:09.668Z,19.87
2019-03-22T23:08:41.577Z,19.60
2019-03-22T23:11:13.169Z,17.23
2019-03-22T23:13:44.065Z,18.43
2019-03-22T23:16:15.527Z,17.20
2019-03-22T23:18:47.502Z,16.90
2019-03-22T23:21:19.368Z,14.17
2019-03-22T23:23:52.367Z,15.93
2019-03-22T23:26:25.594Z,20.63
2019-03-22T23:28:57.660Z,22.90
2019-03-22T23:31:29.367Z,17.60
2019-03-22T23:34:01.636Z,20.67
2019-03-22T23:36:34.303Z,14.73
2019-03-22T23:39:13.174Z,17.90
2019-03-22T23:41:48.637Z,21.47
2019-03-22T23:44:21.405Z,18.83
2019-03-22T23:46:53.320Z,17.07
2019-03-22T23:49:24.550Z,18.73
2019-03-22T23:51:55.683Z,19.50
2019-03-22T23:54:27.536Z,21.37
2019-03-22T23:56:58.531Z,19.27
2019-03-22T23:59:29.443Z,24.50
